Time;durP1;ratioP1;P1;durP2;ratioP2;P2;SDS_P1;SDS_P2;PMS_P1;PMS_P2;Temp;Humidity;BMP_temperature;BMP_pressure;BME280_temperature;BME280_humidity;BME280_pressure;Samples;Min_cycle;Max_cycle;Signal;HPM_P1;HPM_P2
2022/07/11 00:02:22;;;;;;;;;4.50;4.00;;;;;21.63;47.09;102010.28;6181325;23;68851;-88
2022/07/11 00:04:48;;;;;;;;;3.75;2.75;;;;;21.59;46.50;102009.59;6156427;23;45317;-87
2022/07/11 00:07:14;;;;;;;;;4.00;4.00;;;;;21.59;46.43;102008.75;6179134;23;70420;-87
2022/07/11 00:09:39;;;;;;;;;2.75;2.75;;;;;21.56;46.74;102014.19;6156233;23;45608;-87
2022/07/11 00:12:06;;;;;;;;;3.00;3.00;;;;;21.56;47.03;102014.19;6156309;23;45256;-87
2022/07/11 00:14:31;;;;;;;;;3.25;3.25;;;;;21.53;47.35;102017.88;6182009;23;45227;-87
2022/07/11 00:16:57;;;;;;;;;2.50;2.50;;;;;21.49;47.52;102013.69;6181174;23;71764;-87
2022/07/11 00:19:22;;;;;;;;;2.75;2.75;;;;;21.42;47.32;102007.84;6155584;23;64265;-88
2022/07/11 00:21:49;;;;;;;;;3.00;3.00;;;;;21.41;47.74;102007.91;6156329;23;45230;-87
2022/07/11 00:24:17;;;;;;;;;3.75;2.25;;;;;21.34;47.58;102003.88;6182852;23;45295;-88
2022/07/11 00:26:43;;;;;;;;;2.00;2.00;;;;;21.37;47.05;102009.88;6156559;23;46642;-88
2022/07/11 00:29:08;;;;;;;;;3.00;3.00;;;;;21.36;48.01;102012.59;6155675;23;45307;-87
2022/07/11 00:31:33;;;;;;;;;2.75;2.75;;;;;21.36;47.84;102020.53;6156776;23;45305;-87
2022/07/11 00:33:59;;;;;;;;;2.50;2.00;;;;;21.32;47.60;102009.28;6156276;23;45313;-87
2022/07/11 00:36:24;;;;;;;;;2.75;2.75;;;;;21.27;48.07;102000.75;6130245;23;67988;-88
2022/07/11 00:38:50;;;;;;;;;3.00;3.00;;;;;21.26;47.54;101994.56;6156234;23;45260;-88
2022/07/11 00:41:16;;;;;;;;;3.25;3.00;;;;;21.26;47.43;101997.22;6156220;23;45283;-86
2022/07/11 00:43:42;;;;;;;;;3.25;2.00;;;;;21.26;47.69;101996.38;6155544;23;45519;-87
2022/07/11 00:46:08;;;;;;;;;2.25;2.25;;;;;21.27;47.77;102004.22;6156250;23;45460;-86
2022/07/11 00:48:35;;;;;;;;;2.50;2.50;;;;;21.18;47.84;101983.53;6182389;23;45308;-87
2022/07/11 00:51:02;;;;;;;;;2.50;2.00;;;;;21.21;48.06;101993.09;6156868;23;45247;-87
2022/07/11 00:53:28;;;;;;;;;2.50;2.50;;;;;21.18;48.34;101986.19;6182427;23;45360;-87
2022/07/11 00:55:54;;;;;;;;;2.00;2.00;;;;;21.13;48.44;101990.03;6155636;23;51502;-87
2022/07/11 00:58:19;;;;;;;;;2.50;1.50;;;;;21.13;48.29;101988.22;6155490;23;45625;-88
2022/07/11 01:00:45;;;;;;;;;2.50;2.00;;;;;21.06;48.70;101979.78;6155406;23;53311;-87
2022/07/11 01:03:11;;;;;;;;;2.75;1.50;;;;;21.07;48.73;101991.22;6182487;23;45129;-87
2022/07/11 01:05:36;;;;;;;;;3.50;3.25;;;;;21.00;48.70;101977.44;6155609;23;48182;-87
2022/07/11 01:08:02;;;;;;;;;3.50;1.50;;;;;21.01;48.85;101992.41;6155911;23;45266;-87
2022/07/11 01:10:27;;;;;;;;;3.25;2.25;;;;;20.91;49.09;101977.06;6130613;23;45268;-88
2022/07/11 01:12:53;;;;;;;;;4.50;2.50;;;;;20.90;49.05;101978.88;6154820;23;68717;-87
2022/07/11 01:15:18;;;;;;;;;3.00;3.00;;;;;20.95;49.15;101986.56;6182566;23;45536;-88
2022/07/11 01:17:44;;;;;;;;;4.00;2.00;;;;;20.90;49.03;101989.47;6154725;23;61155;-87
2022/07/11 01:20:09;;;;;;;;;3.75;2.75;;;;;20.90;49.61;101992.09;6155184;23;59732;-87
2022/07/11 01:22:56;;;;;;;;;1.50;1.50;;;;;20.86;49.46;101985.28;6182120;23;45383;-87
2022/07/11 01:25:31;;;;;;;;;3.00;3.00;;;;;20.83;49.78;101980.97;6181677;23;45350;-87
2022/07/11 01:28:01;;;;;;;;;2.75;2.75;;;;;20.78;49.80;101985.69;6157578;23;45704;-87
2022/07/11 01:30:27;;;;;;;;;4.00;2.25;;;;;20.78;49.81;101990.97;6156226;23;45198;-87
2022/07/11 01:32:53;;;;;;;;;5.25;2.50;;;;;20.75;50.14;101984.97;6155575;23;45388;-87
2022/07/11 01:35:19;;;;;;;;;1.50;1.50;;;;;20.70;49.81;101979.91;6155615;23;47519;-87
2022/07/11 01:37:45;;;;;;;;;3.50;2.50;;;;;20.73;49.80;101989.47;6155852;23;45390;-88
2022/07/11 01:40:10;;;;;;;;;2.00;1.50;;;;;20.72;50.10;101993.06;6155580;23;45543;-88
2022/07/11 01:42:36;;;;;;;;;2.50;2.50;;;;;20.67;50.38;101986.22;6155855;23;45488;-88
2022/07/11 01:45:01;;;;;;;;;3.25;2.50;;;;;20.67;50.28;101985.34;6155047;23;75154;-88
2022/07/11 01:47:27;;;;;;;;;1.50;1.50;;;;;20.63;50.38;101987.28;6156384;23;45356;-87
2022/07/11 01:49:52;;;;;;;;;4.00;2.50;;;;;20.63;50.15;101991.75;6154676;23;69457;-87
2022/07/11 01:52:17;;;;;;;;;2.00;2.00;;;;;20.57;50.44;101981.44;6182240;23;45533;-88
2022/07/11 01:54:43;;;;;;;;;3.00;3.00;;;;;20.57;50.25;101986.75;6130232;23;47121;-88
2022/07/11 01:57:09;;;;;;;;;6.00;3.00;;;;;20.52;50.61;101986.13;6181220;23;63751;-88
2022/07/11 01:59:35;;;;;;;;;1.50;1.50;;;;;20.51;50.59;101990.56;6182154;23;45301;-88
2022/07/11 02:02:00;;;;;;;;;3.00;2.00;;;;;20.47;50.36;101996.94;6156093;23;45450;-88
2022/07/11 02:04:26;;;;;;;;;2.50;2.50;;;;;20.47;50.91;101987.22;6154423;23;70951;-88
2022/07/11 02:06:51;;;;;;;;;4.50;3.00;;;;;20.46;51.01;102000.50;6181911;23;45179;-88
2022/07/11 02:09:16;;;;;;;;;3.00;3.00;;;;;20.42;50.58;101993.66;6154543;23;61783;-88
2022/07/11 02:11:42;;;;;;;;;3.00;3.00;;;;;20.41;50.53;101991.94;6154628;23;70058;-88
2022/07/11 02:14:07;;;;;;;;;3.00;3.00;;;;;20.36;50.96;101994.84;6130124;23;64410;-88
2022/07/11 02:16:33;;;;;;;;;2.00;2.00;;;;;20.29;50.72;101983.69;6155836;23;45265;-88
2022/07/11 02:18:58;;;;;;;;;4.00;2.25;;;;;20.29;50.70;101991.63;6182096;23;45205;-88
2022/07/11 02:21:24;;;;;;;;;3.50;2.00;;;;;20.30;51.07;101992.50;6155115;23;48162;-89
2022/07/11 02:23:49;;;;;;;;;5.25;3.00;;;;;20.25;51.15;101987.44;6155078;23;47423;-88
2022/07/11 02:26:15;;;;;;;;;2.50;2.50;;;;;20.23;51.03;101985.81;6154519;23;67918;-88
2022/07/11 02:28:42;;;;;;;;;2.00;2.00;;;;;20.23;51.42;101985.81;6155601;23;45329;-88
2022/07/11 02:31:07;;;;;;;;;3.00;2.25;;;;;20.16;51.43;101973.81;6156987;23;45483;-88
2022/07/11 02:33:33;;;;;;;;;4.50;2.50;;;;;20.19;51.57;101987.75;6157115;23;46302;-88
2022/07/11 02:35:59;;;;;;;;;2.00;2.00;;;;;20.15;51.33;101977.38;6156859;23;45232;-88
2022/07/11 02:38:25;;;;;;;;;3.00;3.00;;;;;20.16;51.85;101979.97;6156655;23;45269;-88
2022/07/11 02:40:50;;;;;;;;;3.00;3.00;;;;;20.15;51.58;101988.84;6182211;23;45396;-88
2022/07/11 02:43:16;;;;;;;;;3.00;3.00;;;;;20.05;51.72;101972.56;6155728;23;66916;-88
2022/07/11 02:45:41;;;;;;;;;3.50;3.00;;;;;20.05;51.77;101975.19;6155713;23;71190;-88
2022/07/11 02:48:06;;;;;;;;;3.50;3.25;;;;;20.00;51.76;101974.59;6156981;23;45216;-88
2022/07/11 02:50:32;;;;;;;;;4.00;3.00;;;;;20.00;51.85;101979.88;6182435;23;65133;-88
2022/07/11 02:52:58;;;;;;;;;2.75;2.75;;;;;19.91;52.00;101973.25;6155672;23;65275;-88
2022/07/11 02:55:23;;;;;;;;;5.00;3.50;;;;;19.95;52.14;101981.88;6181528;23;45189;-87
2022/07/11 02:57:48;;;;;;;;;4.00;4.00;;;;;19.93;52.18;101981.09;6156381;23;59996;-88
2022/07/11 03:00:16;;;;;;;;;5.25;4.50;;;;;19.92;51.90;101977.59;6130132;23;67341;-87
2022/07/11 03:02:42;;;;;;;;;6.25;5.00;;;;;19.87;52.17;101969.06;6131848;23;47337;-87
2022/07/11 03:05:08;;;;;;;;;4.00;4.00;;;;;19.88;52.73;101969.91;6156521;23;45300;-88
2022/07/11 03:07:33;;;;;;;;;6.25;4.00;;;;;19.82;52.22;101959.63;6182597;23;45328;-87
2022/07/11 03:09:58;;;;;;;;;4.00;3.25;;;;;19.84;52.29;101963.06;6156739;23;45414;-87
2022/07/11 03:12:24;;;;;;;;;4.00;4.00;;;;;19.81;53.23;101958.75;6179943;23;76944;-87
2022/07/11 03:14:49;;;;;;;;;6.75;5.00;;;;;19.77;52.51;101962.47;6156040;23;62532;-87
2022/07/11 03:17:17;;;;;;;;;4.75;4.00;;;;;19.78;52.75;101969.50;6183403;23;45261;-88
2022/07/11 03:19:43;;;;;;;;;3.00;3.00;;;;;19.76;53.30;101967.84;6156844;23;45372;-88
2022/07/11 03:22:08;;;;;;;;;3.50;3.50;;;;;19.77;53.52;101973.06;6182320;23;47358;-88
2022/07/11 03:24:34;;;;;;;;;3.50;3.50;;;;;19.75;53.18;101974.91;6155610;23;58777;-88
2022/07/11 03:26:59;;;;;;;;;2.75;2.75;;;;;19.65;52.71;101955.97;6182852;23;45436;-87
2022/07/11 03:29:24;;;;;;;;;3.00;3.00;;;;;19.67;53.75;101964.69;6156191;23;52061;-87
2022/07/11 03:31:50;;;;;;;;;3.00;3.00;;;;;19.68;53.38;101971.66;6155262;23;73654;-87
2022/07/11 03:34:15;;;;;;;;;4.75;3.75;;;;;19.67;53.28;101969.13;6155869;23;66176;-88
2022/07/11 03:36:41;;;;;;;;;4.25;2.25;;;;;19.60;53.78;101965.91;6155218;23;56933;-88
2022/07/11 03:39:06;;;;;;;;;2.00;2.00;;;;;19.66;53.92;101976.16;6156684;23;45402;-88
2022/07/11 03:41:31;;;;;;;;;5.00;3.00;;;;;19.58;52.97;101962.47;6156164;23;45320;-87
2022/07/11 03:43:57;;;;;;;;;5.00;3.00;;;;;19.66;53.31;101980.59;6156405;23;45296;-88
2022/07/11 03:46:23;;;;;;;;;4.75;3.00;;;;;19.60;53.54;101976.47;6182122;23;60368;-88
2022/07/11 03:48:48;;;;;;;;;3.25;3.25;;;;;19.62;53.67;101976.41;6156760;23;45353;-86
2022/07/11 03:51:14;;;;;;;;;6.00;3.50;;;;;19.58;53.93;101974.84;6156114;23;47039;-88
2022/07/11 03:53:39;;;;;;;;;3.00;3.00;;;;;19.52;53.34;101971.56;6156971;23;45296;-87
2022/07/11 03:56:05;;;;;;;;;5.00;3.50;;;;;19.57;53.38;101983.69;6156121;23;59634;-88
2022/07/11 03:58:30;;;;;;;;;4.00;3.00;;;;;19.50;53.62;101976.06;6156552;23;45175;-88
2022/07/11 04:00:55;;;;;;;;;3.75;2.75;;;;;19.45;53.45;101967.47;6156154;23;62307;-88
2022/07/11 04:03:21;;;;;;;;;2.00;2.00;;;;;19.46;54.03;101973.59;6181919;23;53677;-88
2022/07/11 04:05:46;;;;;;;;;3.00;3.00;;;;;19.50;53.98;101975.16;6156230;23;49663;-88
2022/07/11 04:08:11;;;;;;;;;3.50;3.50;;;;;19.48;54.27;101974.41;6155506;23;61139;-88
2022/07/11 04:10:37;;;;;;;;;4.00;2.75;;;;;19.44;53.86;101965.75;6155556;23;61514;-88
2022/07/11 04:13:02;;;;;;;;;3.00;3.00;;;;;19.41;54.02;101960.63;6156198;23;45202;-88
2022/07/11 04:15:27;;;;;;;;;4.50;3.00;;;;;19.40;53.86;101966.84;6155960;23;60355;-87
2022/07/11 04:17:53;;;;;;;;;4.75;3.25;;;;;19.43;54.14;101969.34;6155942;23;59372;-88
2022/07/11 04:20:18;;;;;;;;;3.25;2.00;;;;;19.41;54.72;101970.31;6155753;23;47012;-88
2022/07/11 04:22:44;;;;;;;;;3.00;3.00;;;;;19.43;54.45;101982.53;6155945;23;45357;-86
2022/07/11 04:25:09;;;;;;;;;5.50;2.50;;;;;19.40;54.97;101973.91;6182577;23;45197;-87
2022/07/11 04:27:35;;;;;;;;;4.00;4.00;;;;;19.39;54.88;101980.09;6156260;23;45289;-87
2022/07/11 04:30:00;;;;;;;;;2.50;2.50;;;;;19.40;54.41;101987.94;6155881;23;46996;-87
2022/07/11 04:32:25;;;;;;;;;3.50;2.50;;;;;19.43;54.43;101997.53;6182367;23;45247;-87
2022/07/11 04:34:51;;;;;;;;;3.00;3.00;;;;;19.39;54.58;101988.91;6155015;23;62537;-87
2022/07/11 04:37:16;;;;;;;;;3.50;3.00;;;;;19.39;55.12;101998.59;6131315;23;45559;-87
2022/07/11 04:39:45;;;;;;;;;3.00;3.00;;;;;19.36;54.79;101990.81;6155669;23;57499;-87
2022/07/11 04:42:10;;;;;;;;;5.25;4.50;;;;;19.34;55.22;101983.81;6182347;23;45272;-87
2022/07/11 04:44:35;;;;;;;;;4.50;4.00;;;;;19.39;55.06;101982.75;6156204;23;45325;-87
2022/07/11 04:47:01;;;;;;;;;4.50;4.50;;;;;19.38;54.43;101979.25;6155404;23;58565;-87
2022/07/11 04:49:26;;;;;;;;;5.75;4.00;;;;;19.40;54.71;101981.81;6154890;23;71279;-88
2022/07/11 04:51:51;;;;;;;;;4.00;4.00;;;;;19.41;54.98;101989.69;6154845;23;67396;-87
2022/07/11 04:54:17;;;;;;;;;4.75;3.50;;;;;19.45;55.15;101999.16;6181839;23;57894;-87
2022/07/11 04:56:42;;;;;;;;;6.00;5.50;;;;;19.46;54.81;101998.22;6130198;23;65973;-88
2022/07/11 04:59:07;;;;;;;;;4.25;4.25;;;;;19.49;54.98;102000.72;6156528;23;45572;-88
2022/07/11 05:01:34;;;;;;;;;4.00;4.00;;;;;19.44;55.10;101997.44;6180968;23;47966;-88
2022/07/11 05:03:59;;;;;;;;;5.25;5.00;;;;;19.51;55.65;102012.06;6182547;23;45248;-88
2022/07/11 05:06:25;;;;;;;;;7.00;4.75;;;;;19.52;54.71;102007.69;6156356;23;45412;-86
2022/07/11 05:08:50;;;;;;;;;5.00;5.00;;;;;19.50;54.91;102001.56;6182488;23;45252;-88
2022/07/11 05:11:16;;;;;;;;;6.25;5.00;;;;;19.51;55.39;101998.88;6181621;23;66574;-88
2022/07/11 05:13:41;;;;;;;;;6.50;3.75;;;;;19.53;54.96;102004.94;6182247;23;57067;-87
2022/07/11 05:16:07;;;;;;;;;5.50;4.75;;;;;19.61;55.11;102011.66;6155030;23;66021;-88
2022/07/11 05:18:32;;;;;;;;;3.75;3.75;;;;;19.66;55.44;102020.22;6155377;23;46853;-88
2022/07/11 05:20:58;;;;;;;;;4.50;4.00;;;;;19.66;54.58;102021.06;6156324;23;45291;-87
2022/07/11 05:23:23;;;;;;;;;5.00;3.50;;;;;19.71;54.57;102023.50;6182625;23;45257;-88
2022/07/11 05:25:48;;;;;;;;;4.75;3.00;;;;;19.72;55.16;102015.56;6182377;23;45486;-88
2022/07/11 05:28:14;;;;;;;;;4.75;3.00;;;;;19.77;55.68;102028.53;6156079;23;46996;-88
2022/07/11 05:30:39;;;;;;;;;4.00;4.00;;;;;19.78;55.13;102035.53;6154989;23;66010;-88
2022/07/11 05:33:04;;;;;;;;;5.00;4.25;;;;;19.82;54.87;102033.63;6155886;23;45270;-88
2022/07/11 05:35:30;;;;;;;;;3.50;3.50;;;;;19.85;55.08;102030.81;6155483;23;61313;-88
2022/07/11 05:37:55;;;;;;;;;4.25;3.00;;;;;19.85;54.80;102031.66;6155770;23;45253;-88
2022/07/11 05:40:21;;;;;;;;;4.00;4.00;;;;;19.87;55.02;102026.28;6156352;23;45258;-88
2022/07/11 05:42:46;;;;;;;;;5.50;4.25;;;;;19.89;55.12;102030.59;6155838;23;45289;-87
2022/07/11 05:45:12;;;;;;;;;3.00;3.00;;;;;19.90;54.69;102023.53;6155925;23;45409;-88
2022/07/11 05:47:37;;;;;;;;;3.25;3.25;;;;;19.97;54.67;102027.59;6155590;23;47227;-88
2022/07/11 05:50:03;;;;;;;;;4.00;4.00;;;;;19.99;55.26;102022.22;6180747;23;45667;-88
2022/07/11 05:52:29;;;;;;;;;4.00;4.00;;;;;20.03;54.53;102015.84;6155812;23;45308;-88
2022/07/11 05:54:54;;;;;;;;;4.25;4.25;;;;;20.05;54.64;102014.84;6154989;23;51620;-88
2022/07/11 05:57:20;;;;;;;;;3.75;3.75;;;;;20.08;54.94;102025.28;6154415;23;72250;-88
2022/07/11 05:59:46;;;;;;;;;4.25;4.00;;;;;20.11;54.57;102021.63;6155722;23;45236;-88
2022/07/11 06:02:11;;;;;;;;;6.25;4.00;;;;;20.13;55.00;102018.91;6155817;23;45317;-88
2022/07/11 06:04:37;;;;;;;;;3.75;3.50;;;;;20.14;54.41;102013.53;6156098;23;45334;-89
2022/07/11 06:07:03;;;;;;;;;4.25;4.25;;;;;20.20;55.27;102025.59;6157088;23;47184;-90
2022/07/11 06:09:28;;;;;;;;;4.75;4.00;;;;;20.26;54.58;102026.19;6132385;23;45804;-90
2022/07/11 06:11:54;;;;;;;;;4.00;3.25;;;;;20.29;54.39;102027.78;6157519;23;45248;-90
2022/07/11 06:14:19;;;;;;;;;2.75;2.75;;;;;20.28;54.84;102026.94;6131446;23;66439;-90
2022/07/11 06:16:44;;;;;;;;;6.00;3.00;;;;;20.34;54.50;102024.91;6156711;23;48517;-90
2022/07/11 06:19:10;;;;;;;;;4.00;3.50;;;;;20.38;54.20;102026.50;6156419;23;66888;-90
2022/07/11 06:21:35;;;;;;;;;5.75;4.50;;;;;20.39;53.54;102026.44;6157258;23;45279;-90
2022/07/11 06:24:00;;;;;;;;;4.50;4.00;;;;;20.45;54.48;102035.84;6156646;23;58098;-90
2022/07/11 06:26:26;;;;;;;;;3.50;3.50;;;;;20.39;54.26;102017.63;6156344;23;65965;-90
2022/07/11 06:28:51;;;;;;;;;3.00;2.00;;;;;20.49;54.25;102030.31;6184269;23;45278;-89
2022/07/11 06:31:16;;;;;;;;;5.25;3.00;;;;;20.47;54.57;102018.09;6156766;23;45841;-89
2022/07/11 06:33:42;;;;;;;;;3.00;2.50;;;;;20.54;53.94;102024.78;6156931;23;62110;-90
2022/07/11 06:36:08;;;;;;;;;3.50;3.00;;;;;20.60;54.31;102032.44;6183752;23;45295;-91
2022/07/11 06:38:33;;;;;;;;;5.00;3.75;;;;;20.62;54.58;102025.28;6182137;23;45188;-89
2022/07/11 06:40:58;;;;;;;;;6.50;4.25;;;;;20.67;54.59;102025.03;6157308;23;45243;-87
2022/07/11 06:43:24;;;;;;;;;2.75;2.50;;;;;20.71;53.74;102031.03;6182502;23;61681;-89
2022/07/11 06:45:50;;;;;;;;;3.25;3.25;;;;;20.71;53.97;102021.31;6182582;23;46971;-87
2022/07/11 06:48:16;;;;;;;;;5.00;3.75;;;;;20.81;54.10;102034.94;6182584;23;45280;-86
2022/07/11 06:50:41;;;;;;;;;5.25;2.50;;;;;20.83;54.41;102017.19;6156477;23;45237;-86
2022/07/11 06:53:06;;;;;;;;;4.50;3.00;;;;;20.87;54.45;102014.28;6182295;23;66219;-88
2022/07/11 06:55:33;;;;;;;;;5.75;3.25;;;;;20.94;53.52;102019.28;6157032;23;46148;-88
2022/07/11 06:57:59;;;;;;;;;3.50;3.00;;;;;20.95;53.81;102011.25;6183173;23;45658;-88
2022/07/11 07:00:24;;;;;;;;;6.50;4.00;;;;;21.05;54.25;102022.22;6156830;23;45278;-91
2022/07/11 07:02:49;;;;;;;;;5.00;3.25;;;;;21.06;54.03;102021.25;6152609;23;62787;-86
2022/07/11 07:05:15;;;;;;;;;3.25;2.75;;;;;21.10;53.84;102016.66;6181694;23;46394;-87
2022/07/11 07:07:40;;;;;;;;;3.75;3.75;;;;;21.18;53.67;102019.75;6154660;23;45350;-86
2022/07/11 07:10:07;;;;;;;;;3.25;2.50;;;;;21.21;54.11;102016.94;6155246;23;66774;-87
2022/07/11 07:12:37;;;;;;;;;4.25;3.50;;;;;21.31;53.89;102031.41;6156265;23;45472;-86
2022/07/11 07:15:03;;;;;;;;;5.00;3.00;;;;;21.33;53.40;102023.38;6180819;23;45359;-86
2022/07/11 07:17:28;;;;;;;;;3.00;3.00;;;;;21.40;53.30;102030.06;6155279;23;45317;-89
2022/07/11 07:19:56;;;;;;;;;3.50;3.50;;;;;21.47;53.39;102039.44;6154999;23;65866;-92
2022/07/11 07:22:22;;;;;;;;;2.75;2.25;;;;;21.47;53.48;102026.19;6155873;23;45257;-85
2022/07/11 07:24:47;;;;;;;;;3.25;3.00;;;;;21.51;52.84;102017.13;6181992;23;45413;-86
2022/07/11 07:27:12;;;;;;;;;3.25;2.25;;;;;21.58;52.47;102015.84;6155506;23;45162;-84
2022/07/11 07:29:38;;;;;;;;;3.75;3.75;;;;;21.64;53.41;102017.31;6154748;23;45313;-84
2022/07/11 07:32:05;;;;;;;;;3.50;3.50;;;;;21.70;51.89;102018.75;6154557;23;54565;-86
2022/07/11 07:34:30;;;;;;;;;2.50;1.75;;;;;21.74;52.75;102022.94;6182019;23;46329;-87
2022/07/11 07:36:55;;;;;;;;;5.00;4.00;;;;;21.80;53.31;102022.59;6154405;23;63270;-85
2022/07/11 07:39:21;;;;;;;;;3.50;3.00;;;;;21.87;52.99;102025.75;6152339;23;52583;-86
2022/07/11 07:41:46;;;;;;;;;3.25;3.25;;;;;21.89;52.77;102019.41;6152462;23;57253;-85
2022/07/11 07:44:11;;;;;;;;;3.50;3.50;;;;;21.99;53.17;102030.34;6151085;23;66202;-87
2022/07/11 07:46:37;;;;;;;;;3.00;3.00;;;;;22.01;52.53;102023.19;6178755;23;45327;-86
2022/07/11 07:49:02;;;;;;;;;6.00;3.00;;;;;22.05;51.93;102022.06;6126740;23;48963;-87
2022/07/11 07:51:28;;;;;;;;;4.75;4.50;;;;;22.14;52.51;102026.84;6130007;23;45330;-86
2022/07/11 07:53:54;;;;;;;;;2.00;2.00;;;;;22.17;51.15;102028.44;6153454;23;45629;-87
2022/07/11 07:56:20;;;;;;;;;2.50;1.75;;;;;22.16;52.18;102024.94;6154621;23;45258;-87
2022/07/11 07:58:45;;;;;;;;;2.00;2.00;;;;;22.21;51.10;102022.03;6181010;23;45228;-87
2022/07/11 08:03:54;;;;;;;;;1.75;1.75;;;;;22.31;50.30;102025.91;6159398;23;45701;-86
2022/07/11 08:06:20;;;;;;;;;2.75;2.75;;;;;22.35;51.22;102023.91;6154230;23;45257;-86
2022/07/11 08:08:45;;;;;;;;;2.50;2.50;;;;;22.35;51.38;102026.56;6154354;23;45135;-87
2022/07/11 08:11:11;;;;;;;;;1.75;1.75;;;;;22.39;50.52;102023.63;6179659;23;64937;-86
2022/07/11 08:13:37;;;;;;;;;1.50;1.50;;;;;22.47;50.03;102027.63;6155218;23;46318;-87
2022/07/11 08:16:04;;;;;;;;;2.75;1.50;;;;;22.44;50.63;102018.06;6154785;23;45245;-87
2022/07/11 08:18:29;;;;;;;;;1.25;1.00;;;;;22.52;49.66;102020.28;6154163;23;45384;-87
2022/07/11 08:20:56;;;;;;;;;0.75;0.75;;;;;22.56;49.98;102022.63;6153190;23;62927;-86
2022/07/11 08:23:21;;;;;;;;;2.75;1.00;;;;;22.57;49.57;102015.56;6154669;23;47021;-86
2022/07/11 08:25:46;;;;;;;;;1.75;1.75;;;;;22.61;50.25;102022.38;6153131;23;45336;-86
2022/07/11 08:28:12;;;;;;;;;3.25;1.75;;;;;22.63;49.86;102014.34;6153330;23;64479;-86
2022/07/11 08:30:37;;;;;;;;;2.00;1.00;;;;;22.63;49.99;102001.06;6153713;23;64646;-86
2022/07/11 08:33:03;;;;;;;;;2.00;2.00;;;;;22.70;49.98;102005.06;6127610;23;77132;-86
2022/07/11 08:35:29;;;;;;;;;2.50;2.25;;;;;22.72;50.58;101992.56;6153405;23;45356;-86
2022/07/11 08:37:54;;;;;;;;;2.75;2.00;;;;;22.71;50.15;101983.72;6154118;23;52201;-87
2022/07/11 08:40:20;;;;;;;;;2.50;2.50;;;;;22.74;49.96;101982.69;6153307;23;68514;-86
2022/07/11 08:42:45;;;;;;;;;1.75;1.75;;;;;22.84;48.81;101998.91;6154205;23;47218;-87
2022/07/11 08:45:12;;;;;;;;;1.50;1.50;;;;;22.85;49.30;101990.00;6171608;23;45781;-87
2022/07/11 08:47:39;;;;;;;;;3.00;3.00;;;;;22.92;49.06;101992.19;6179143;23;45344;-87
2022/07/11 08:50:04;;;;;;;;;1.75;1.75;;;;;;;;6154492;23;45442;-87
2022/07/11 08:52:31;;;;;;;;;1.75;1.00;;;;;23.00;48.38;101989.06;6180794;23;46292;-88
2022/07/11 08:54:57;;;;;;;;;2.50;1.75;;;;;23.00;48.38;101984.59;6126901;23;45414;-87
2022/07/11 08:57:22;;;;;;;;;4.25;2.00;;;;;23.06;49.09;101982.53;6154125;23;61878;-87
2022/07/11 08:59:49;;;;;;;;;2.00;2.00;;;;;23.06;49.74;101983.38;6154455;23;47931;-87
2022/07/11 09:02:15;;;;;;;;;2.00;2.00;;;;;23.13;48.19;101984.72;6154403;23;45338;-87
2022/07/11 09:04:46;;;;;;;;;3.00;2.00;;;;;23.17;48.81;101978.25;6155264;23;45593;-87
2022/07/11 09:07:12;;;;;;;;;4.00;2.00;;;;;23.18;49.26;101973.81;6155899;23;45714;-87
2022/07/11 09:09:37;;;;;;;;;1.75;1.75;;;;;23.25;47.97;101987.56;6154249;23;45380;-87
2022/07/11 09:12:11;;;;;;;;;3.00;3.00;;;;;23.27;49.01;101973.25;6153578;23;46884;-87
2022/07/11 09:14:36;;;;;;;;;2.75;1.75;;;;;23.26;49.10;101966.22;6181137;23;45285;-86
2022/07/11 09:17:04;;;;;;;;;3.25;2.75;;;;;23.35;47.44;101976.25;6153750;23;45448;-87
2022/07/11 09:19:32;;;;;;;;;2.25;2.25;;;;;23.38;48.77;101978.72;6154274;23;45226;-87
2022/07/11 09:27:49;;;;;;;;;1.50;1.50;;;;;23.49;48.29;101974.50;6181762;23;45267;-86
2022/07/11 09:30:28;;;;;;;;;1.50;1.50;;;;;23.48;48.66;101965.69;6180670;23;45268;-87
2022/07/11 09:33:01;;;;;;;;;2.00;2.00;;;;;23.52;48.46;101959.22;6152843;23;46515;-87
2022/07/11 09:35:37;;;;;;;;;2.00;2.00;;;;;23.58;47.92;101969.44;6180852;23;45722;-87
2022/07/11 09:38:04;;;;;;;;;2.25;2.25;;;;;23.63;48.46;101963.84;6152210;23;45355;-87
2022/07/11 09:40:29;;;;;;;;;3.50;2.25;;;;;23.66;48.08;101954.81;6179868;23;45420;-87
2022/07/11 09:42:56;;;;;;;;;4.00;3.25;;;;;23.71;47.61;101960.69;6154159;23;46449;-87
2022/07/11 09:45:24;;;;;;;;;4.00;2.00;;;;;23.73;47.60;101962.28;6124580;23;46051;-87
2022/07/11 09:47:51;;;;;;;;;3.50;2.00;;;;;23.74;47.92;101950.72;6154165;23;45398;-88
2022/07/11 09:50:25;;;;;;;;;3.00;2.75;;;;;23.84;47.20;101961.63;6178784;23;45253;-88
2022/07/11 09:53:07;;;;;;;;;2.50;2.50;;;;;23.89;47.66;101962.19;6128861;23;47087;-89
2022/07/11 09:55:40;;;;;;;;;2.00;2.00;;;;;23.94;47.31;101961.84;6130721;23;45302;-89
2022/07/11 09:58:07;;;;;;;;;2.50;2.00;;;;;24.00;47.55;101964.13;6154989;23;45203;-89
2022/07/11 10:00:35;;;;;;;;;1.50;1.50;;;;;24.02;47.30;101956.06;6154964;23;45465;-89
2022/07/11 10:03:00;;;;;;;;;3.25;2.00;;;;;24.10;47.46;101959.88;6154360;23;48202;-88
2022/07/11 10:05:26;;;;;;;;;1.75;1.75;;;;;24.13;47.33;101965.00;6129596;23;45217;-89
2022/07/11 10:07:52;;;;;;;;;1.50;1.50;;;;;24.17;46.80;101962.16;6180809;23;45340;-88
2022/07/11 10:10:17;;;;;;;;;2.00;2.00;;;;;24.19;46.91;101954.94;6179408;23;45401;-87
2022/07/11 10:12:45;;;;;;;;;2.25;2.25;;;;;24.23;47.28;101962.59;6154316;23;46904;-87
2022/07/11 10:15:11;;;;;;;;;2.50;1.75;;;;;24.27;46.51;101965.88;6154275;23;45689;-87
2022/07/11 10:17:44;;;;;;;;;2.50;2.00;;;;;24.28;45.45;101954.31;6154361;23;45193;-87
2022/07/11 10:20:21;;;;;;;;;2.00;2.00;;;;;24.36;46.83;101959.94;6154207;23;45269;-88
2022/07/11 10:23:07;;;;;;;;;2.00;2.00;;;;;24.42;46.43;101967.50;6180986;23;45307;-89
2022/07/11 10:25:53;;;;;;;;;1.00;1.00;;;;;24.46;46.27;101961.03;6164244;23;45568;-89
2022/07/11 10:28:22;;;;;;;;;2.00;1.25;;;;;24.55;46.14;101967.53;6155308;23;45283;-91
2022/07/11 10:30:52;;;;;;;;;2.75;1.75;;;;;24.59;46.52;101955.75;6181038;23;45404;-89
2022/07/11 10:33:18;;;;;;;;;1.75;1.75;;;;;24.66;46.68;101965.00;6154114;23;45605;-88
2022/07/11 10:35:46;;;;;;;;;3.00;1.50;;;;;24.70;45.71;101963.84;6154871;23;45218;-90
2022/07/11 10:38:12;;;;;;;;;4.25;2.25;;;;;24.76;46.27;101969.69;6154517;23;45364;-89
2022/07/11 10:40:50;;;;;;;;;1.00;1.00;;;;;24.84;44.70;101968.19;6154897;23;45427;-88
2022/07/11 10:43:21;;;;;;;;;1.00;1.00;;;;;24.91;46.28;101976.63;6181367;23;46561;-92
2022/07/11 10:45:58;;;;;;;;;1.00;1.00;;;;;24.95;44.13;101963.94;6181416;23;45337;-90
2022/07/11 10:48:25;;;;;;;;;1.00;1.00;;;;;25.02;45.97;101973.19;6154749;23;45285;-93
2022/07/11 10:51:18;;;;;;;;;1.00;1.00;;;;;25.10;45.35;101968.16;6154773;23;45452;-91
2022/07/11 10:53:48;;;;;;;;;1.25;1.25;;;;;25.16;45.10;101972.22;6182743;23;45300;-90
2022/07/11 10:56:28;;;;;;;;;0.25;0.25;;;;;25.21;44.62;101956.75;6156030;23;45302;-92
2022/07/11 10:59:17;;;;;;;;;2.00;1.00;;;;;25.29;45.27;101965.06;6156689;23;45281;-92
2022/07/11 11:02:10;;;;;;;;;1.50;1.00;;;;;25.37;44.82;101968.03;6156864;23;45329;-92
2022/07/11 11:04:58;;;;;;;;;2.00;2.00;;;;;25.44;44.65;101958.59;6182717;23;46471;-94
2022/07/11 11:07:38;;;;;;;;;1.75;1.75;;;;;25.50;44.68;101950.19;6158364;23;45556;-90
2022/07/11 11:10:29;;;;;;;;;1.00;1.00;;;;;25.59;43.49;101947.78;6156668;23;45427;-89
2022/07/11 11:13:07;;;;;;;;;1.75;1.25;;;;;25.68;43.83;101942.63;6174266;23;46110;-89
2022/07/11 11:15:39;;;;;;;;;2.00;2.00;;;;;25.81;44.46;101947.06;6182735;23;46337;-90
2022/07/11 11:18:23;;;;;;;;;1.00;1.00;;;;;25.94;44.81;101939.88;6182386;23;45272;-92
2022/07/11 11:21:01;;;;;;;;;2.00;1.75;;;;;26.06;44.79;101938.94;6182416;23;45244;-92
2022/07/11 11:23:34;;;;;;;;;2.50;1.25;;;;;26.21;44.18;101936.09;6182566;23;45339;-90
2022/07/11 11:26:14;;;;;;;;;2.00;1.25;;;;;26.36;43.19;101939.41;6156356;23;45595;-86
2022/07/11 11:29:00;;;;;;;;;0.50;0.50;;;;;26.57;43.80;101936.88;6156984;23;45288;-88
2022/07/11 11:31:27;;;;;;;;;0.75;0.75;;;;;26.76;43.27;101936.31;6182436;23;45228;-91
2022/07/11 11:33:52;;;;;;;;;2.00;2.00;;;;;26.98;41.13;101938.97;6156610;23;45174;-88
2022/07/11 11:36:20;;;;;;;;;1.00;1.00;;;;;27.24;41.85;101936.88;6154895;23;47773;-88